Nibulon 1 — UUAS4 — position and weather

sailwx.info

Track history (hours):
 
Tides and Currents Weather Stations Pressure Air Temp Water Temp Dewpoint Dewpoint Depression Visibility Wind Speed Wind Dir Waves Ship Positions

Nibulon 1

Last reported at 2014-Jul-26 06:33 UTC. Time now 2014-Jul-26 07:07 UTC.
Position N 46°36' E 031°29'.

Length 38 m; draft 2.6 m.

Type: Tug. MMSI: 272641000.

Date/timePositionNaut miles runAvg speedWind from/ knotsBaromVisibWave heightAir tempDewpointWater temp
2014-Jul-26 06:33N 46°36' E 031°29'1 0.1
2014-Jul-25 22:30N 46°36' E 031°30'4 3.7
2014-Jul-25 21:33N 46°35' E 031°35'5 5.1
2014-Jul-25 20:33N 46°35' E 031°42'5 5.4
2014-Jul-25 19:33N 46°35' E 031°50'5 5.1
2014-Jul-25 18:33N 46°33' E 031°57'5 5.0
2014-Jul-25 17:31N 46°32' E 032°04'  
2014-Jul-22 22:14N 46°34' E 032°26'3 4.5
2014-Jul-22 21:33N 46°33' E 032°22'4 4.2
2014-Jul-22 20:33N 46°33' E 032°16'5 5.0
2014-Jul-22 19:33N 46°32' E 032°09'5 4.8
2014-Jul-22 18:34N 46°32' E 032°02'5 5.0
2014-Jul-22 17:33N 46°34' E 031°55'5 5.1
2014-Jul-22 16:33N 46°35' E 031°48'5 5.3
2014-Jul-22 15:33N 46°35' E 031°40'5 5.4
2014-Jul-22 14:33N 46°35' E 031°32'2 0.3
2014-Jul-22 05:33N 46°36' E 031°30'2 0.1
2014-Jul-21 10:22N 46°35' E 031°32'4 3.6
2014-Jul-21 09:08N 46°35' E 031°39'3 3.7
2014-Jul-21 08:27N 46°36' E 031°42'3 3.8
2014-Jul-21 07:33N 46°36' E 031°47'4 3.8
2014-Jul-21 06:33N 46°35' E 031°53'4 3.6
2014-Jul-21 05:33N 46°33' E 031°58'23 3.8
2014-Jul-20 23:32N 46°35' E 032°30'  
Track history (hours):
 
Tides and Currents Weather Stations Pressure Air Temp Water Temp Dewpoint Dewpoint Depression Visibility Wind Speed Wind Dir Waves Ship Positions

Nibulon 1

Last reported at 2014-Jul-26 06:33 UTC. Time now 2014-Jul-26 07:07 UTC.
Position N 46°36' E 031°29'.

Length 38 m; draft 2.6 m.

Type: Tug. MMSI: 272641000.

Date/timePositionNaut miles runAvg speedWind from/ knotsBaromVisibWave heightAir tempDewpointWater temp
2014-Jul-26 06:33N 46°36' E 031°29'1 0.1
2014-Jul-25 22:30N 46°36' E 031°30'4 3.7
2014-Jul-25 21:33N 46°35' E 031°35'5 5.1
2014-Jul-25 20:33N 46°35' E 031°42'5 5.4
2014-Jul-25 19:33N 46°35' E 031°50'5 5.1
2014-Jul-25 18:33N 46°33' E 031°57'5 5.0
2014-Jul-25 17:31N 46°32' E 032°04'  
2014-Jul-22 22:14N 46°34' E 032°26'3 4.5
2014-Jul-22 21:33N 46°33' E 032°22'4 4.2
2014-Jul-22 20:33N 46°33' E 032°16'5 5.0
2014-Jul-22 19:33N 46°32' E 032°09'5 4.8
2014-Jul-22 18:34N 46°32' E 032°02'5 5.0
2014-Jul-22 17:33N 46°34' E 031°55'5 5.1
2014-Jul-22 16:33N 46°35' E 031°48'5 5.3
2014-Jul-22 15:33N 46°35' E 031°40'5 5.4
2014-Jul-22 14:33N 46°35' E 031°32'2 0.3
2014-Jul-22 05:33N 46°36' E 031°30'2 0.1
2014-Jul-21 10:22N 46°35' E 031°32'4 3.6
2014-Jul-21 09:08N 46°35' E 031°39'3 3.7
2014-Jul-21 08:27N 46°36' E 031°42'3 3.8
2014-Jul-21 07:33N 46°36' E 031°47'4 3.8
2014-Jul-21 06:33N 46°35' E 031°53'4 3.6
2014-Jul-21 05:33N 46°33' E 031°58'23 3.8
2014-Jul-20 23:32N 46°35' E 032°30'  

Dump ship's entire track history